Time;durP1;ratioP1;P1;durP2;ratioP2;P2;SDS_P1;SDS_P2;PMS_P1;PMS_P2;Temp;Humidity;BMP_temperature;BMP_pressure;BME280_temperature;BME280_humidity;BME280_pressure;Samples;Min_cycle;Max_cycle;Signal;HPM_P1;HPM_P2
2021/05/27 00:00:36;;;;;;;9.60;7.90;;;12.50;90.10;;;;;;5073493;28;20448;-73
2021/05/27 00:03:03;;;;;;;9.70;8.63;;;12.60;89.70;;;;;;5073399;28;20441;-73
2021/05/27 00:05:30;;;;;;;8.50;7.67;;;12.50;89.30;;;;;;5073214;28;20449;-73
2021/05/27 00:07:58;;;;;;;9.63;7.73;;;12.60;89.80;;;;;;5073252;28;20488;-73
2021/05/27 00:10:26;;;;;;;11.97;8.53;;;12.60;89.80;;;;;;5073105;28;20508;-73
2021/05/27 00:12:52;;;;;;;9.97;8.40;;;12.60;89.60;;;;;;5073490;28;20514;-73
2021/05/27 00:15:21;;;;;;;8.50;7.70;;;12.60;89.50;;;;;;5076854;28;20448;-73
2021/05/27 00:17:48;;;;;;;10.70;8.90;;;12.60;89.50;;;;;;5077450;28;20421;-73
2021/05/27 00:20:15;;;;;;;11.13;7.80;;;12.60;89.60;;;;;;5077860;28;20510;-73
2021/05/27 00:22:42;;;;;;;9.50;8.50;;;12.60;89.90;;;;;;5077346;28;20805;-73
2021/05/27 00:25:11;;;;;;;9.10;8.10;;;12.60;89.80;;;;;;5077297;28;20444;-73
2021/05/27 00:27:37;;;;;;;9.53;8.53;;;12.60;90.00;;;;;;5076888;28;20508;-73
2021/05/27 00:30:05;;;;;;;9.03;7.87;;;12.60;89.40;;;;;;5076999;28;20433;-73
2021/05/27 00:32:32;;;;;;;10.17;8.23;;;12.60;89.90;;;;;;5076482;28;20452;-73
2021/05/27 00:34:59;;;;;;;9.83;8.83;;;12.60;89.80;;;;;;5076271;28;20972;-73
2021/05/27 00:37:26;;;;;;;17.00;9.37;;;12.60;89.60;;;;;;5076433;28;20878;-73
2021/05/27 00:39:52;;;;;;;8.27;7.57;;;12.60;90.00;;;;;;5076892;28;20462;-73
2021/05/27 00:42:18;;;;;;;8.87;8.00;;;12.60;90.10;;;;;;5076481;28;20451;-73
2021/05/27 00:44:58;;;;;;;12.30;8.37;;;12.50;90.00;;;;;;5076504;28;20531;-73
2021/05/27 00:47:24;;;;;;;10.43;8.07;;;12.50;90.20;;;;;;5076316;28;20491;-73
2021/05/27 00:49:50;;;;;;;13.03;9.30;;;12.50;90.20;;;;;;5076208;28;20804;-73
2021/05/27 00:52:17;;;;;;;8.80;7.90;;;12.50;90.20;;;;;;5076481;28;20436;-73
2021/05/27 00:54:43;;;;;;;9.27;8.37;;;12.50;90.10;;;;;;5076293;28;20445;-73
2021/05/27 00:57:17;;;;;;;10.97;7.77;;;12.40;90.20;;;;;;5076306;28;20464;-73
2021/05/27 00:59:43;;;;;;;8.03;7.20;;;12.40;90.30;;;;;;5076381;28;20813;-73
2021/05/27 01:02:10;;;;;;;9.30;7.10;;;12.40;90.30;;;;;;5076165;28;20449;-73
2021/05/27 01:04:36;;;;;;;11.23;7.20;;;12.50;90.10;;;;;;5076249;28;20476;-73
2021/05/27 01:07:02;;;;;;;8.47;7.67;;;12.40;90.20;;;;;;5075497;28;21024;-73
2021/05/27 01:09:29;;;;;;;9.93;7.60;;;12.40;90.30;;;;;;5075906;28;20498;-73
2021/05/27 01:11:56;;;;;;;10.93;7.90;;;12.40;90.20;;;;;;5075849;28;20524;-73
2021/05/27 01:17:03;;;;;;;9.77;6.83;;;12.40;90.20;;;;;;5075102;28;20496;-73
2021/05/27 01:19:29;;;;;;;11.47;7.87;;;12.50;90.10;;;;;;5075788;28;20439;-73
2021/05/27 01:21:56;;;;;;;9.43;8.00;;;12.40;90.20;;;;;;5075369;28;20965;-73
2021/05/27 01:24:23;;;;;;;9.40;8.33;;;12.40;90.20;;;;;;5075526;28;20448;-73
2021/05/27 01:26:50;;;;;;;9.53;8.73;;;12.40;90.20;;;;;;5074732;28;20507;-73
2021/05/27 01:29:16;;;;;;;9.03;8.13;;;12.30;90.20;;;;;;5075582;28;20452;-73
2021/05/27 01:31:42;;;;;;;9.03;8.13;;;12.30;90.40;;;;;;5075514;28;20455;-73
2021/05/27 01:34:10;;;;;;;10.23;9.23;;;12.30;90.40;;;;;;5075543;28;20847;-73
2021/05/27 01:36:36;;;;;;;10.97;9.60;;;12.30;90.50;;;;;;5075361;28;20464;-73
2021/05/27 01:39:09;;;;;;;9.90;8.47;;;12.20;90.60;;;;;;5075367;28;20449;-73
2021/05/27 01:41:36;;;;;;;10.57;8.60;;;12.20;90.70;;;;;;5075463;28;20766;-73
2021/05/27 01:44:02;;;;;;;20.73;9.87;;;12.10;90.90;;;;;;5075350;28;20467;-73
2021/05/27 01:46:29;;;;;;;9.97;8.83;;;12.10;91.20;;;;;;5074798;28;20987;-73
2021/05/27 01:48:55;;;;;;;11.03;9.20;;;12.10;91.30;;;;;;5074899;28;20919;-73
2021/05/27 01:51:21;;;;;;;11.57;8.90;;;12.00;91.30;;;;;;5075233;28;20467;-73
2021/05/27 01:53:48;;;;;;;12.50;9.50;;;12.00;91.60;;;;;;5075065;28;20451;-73
2021/05/27 01:56:15;;;;;;;9.43;8.43;;;11.90;91.70;;;;;;5074935;28;20811;-73
2021/05/27 01:58:41;;;;;;;11.57;9.43;;;12.00;91.80;;;;;;5074967;28;20437;-73
2021/05/27 02:01:08;;;;;;;14.37;9.80;;;12.00;91.70;;;;;;5075017;28;20429;-73
2021/05/27 02:03:34;;;;;;;10.53;9.30;;;12.00;91.80;;;;;;5074613;28;20961;-73
2021/05/27 02:06:01;;;;;;;10.30;9.30;;;12.00;91.90;;;;;;5074801;28;20468;-73
2021/05/27 02:08:27;;;;;;;13.67;9.73;;;12.00;91.80;;;;;;5074710;28;20472;-73
2021/05/27 02:10:54;;;;;;;12.10;9.30;;;12.00;91.90;;;;;;5074779;28;20497;-73
2021/05/27 02:13:21;;;;;;;11.23;9.53;;;12.00;91.90;;;;;;5074446;28;20448;-73
2021/05/27 02:15:47;;;;;;;12.10;10.17;;;12.00;91.90;;;;;;5074394;28;20480;-73
2021/05/27 02:18:13;;;;;;;10.13;9.03;;;12.00;91.90;;;;;;5074697;28;20805;-73
2021/05/27 02:20:40;;;;;;;11.93;9.87;;;12.00;92.00;;;;;;5074544;28;20448;-74
2021/05/27 02:23:06;;;;;;;12.13;10.63;;;12.10;92.10;;;;;;5074562;28;20539;-74
2021/05/27 02:25:33;;;;;;;16.83;11.30;;;12.10;92.00;;;;;;5075175;28;20445;-73
2021/05/27 02:27:59;;;;;;;14.53;10.43;;;12.10;92.00;;;;;;5075099;28;20481;-73
2021/05/27 02:30:26;;;;;;;12.30;11.00;;;12.10;92.20;;;;;;5075030;28;20449;-73
2021/05/27 02:32:53;;;;;;;14.37;10.80;;;12.10;92.20;;;;;;5075021;28;20562;-73
2021/05/27 02:35:19;;;;;;;12.93;11.63;;;12.10;92.30;;;;;;5074712;28;20441;-73
2021/05/27 02:37:45;;;;;;;13.43;12.13;;;12.10;92.30;;;;;;5073356;28;20432;-74
2021/05/27 02:40:12;;;;;;;14.13;11.20;;;12.10;92.30;;;;;;5074224;28;20510;-74
2021/05/27 02:42:39;;;;;;;19.63;13.20;;;12.10;92.40;;;;;;5074212;28;20451;-74
2021/05/27 02:45:05;;;;;;;14.30;12.77;;;12.10;92.50;;;;;;5073810;28;21039;-74
2021/05/27 02:47:33;;;;;;;14.23;12.50;;;12.10;92.50;;;;;;5073613;28;21013;-73
2021/05/27 02:49:59;;;;;;;16.43;14.00;;;12.10;92.90;;;;;;5074588;28;20514;-73
2021/05/27 02:52:25;;;;;;;15.93;13.90;;;12.10;93.30;;;;;;5074039;28;20441;-73
2021/05/27 02:54:51;;;;;;;17.43;14.50;;;12.10;93.50;;;;;;5074093;28;20441;-73
2021/05/27 02:57:18;;;;;;;17.77;15.70;;;12.00;93.60;;;;;;5073698;28;21032;-73
2021/05/27 02:59:44;;;;;;;16.57;15.00;;;12.00;93.90;;;;;;5073622;28;20935;-73
2021/05/27 03:02:10;;;;;;;17.07;15.27;;;12.00;94.10;;;;;;5073596;28;20449;-73
2021/05/27 03:04:37;;;;;;;21.63;16.10;;;12.00;94.20;;;;;;5073844;28;20449;-73
2021/05/27 03:07:03;;;;;;;18.93;16.20;;;11.90;94.20;;;;;;5073696;28;20864;-73
2021/05/27 03:09:29;;;;;;;16.87;14.90;;;12.00;94.20;;;;;;5073790;28;20786;-73
2021/05/27 03:11:57;;;;;;;15.70;13.80;;;12.00;94.10;;;;;;5073713;28;20448;-73
2021/05/27 03:14:23;;;;;;;20.40;15.43;;;12.00;94.20;;;;;;5073826;28;20804;-73
2021/05/27 03:16:49;;;;;;;15.13;13.53;;;11.90;94.30;;;;;;5073127;28;21014;-72
2021/05/27 03:19:16;;;;;;;16.33;14.63;;;12.00;94.40;;;;;;5073906;28;20455;-73
2021/05/27 03:21:43;;;;;;;16.07;13.30;;;12.00;94.40;;;;;;5073538;28;20939;-73
2021/05/27 03:24:09;;;;;;;16.27;13.53;;;11.90;94.40;;;;;;5073888;28;20448;-73
2021/05/27 03:26:35;;;;;;;19.10;14.97;;;11.90;94.50;;;;;;5073353;28;21055;-73
2021/05/27 03:29:02;;;;;;;17.03;14.57;;;11.90;94.50;;;;;;5073526;28;20502;-73
2021/05/27 03:31:28;;;;;;;16.90;15.10;;;11.90;94.40;;;;;;5074321;28;20506;-73
2021/05/27 03:33:54;;;;;;;16.80;14.17;;;11.90;94.60;;;;;;5073155;28;20789;-73
2021/05/27 03:36:21;;;;;;;16.87;14.83;;;11.90;94.50;;;;;;5073026;28;21005;-72
2021/05/27 03:38:48;;;;;;;15.10;13.70;;;12.00;94.50;;;;;;5073451;28;20494;-72
2021/05/27 03:41:14;;;;;;;17.20;14.53;;;11.90;94.40;;;;;;5073129;28;20449;-72
2021/05/27 03:43:40;;;;;;;16.27;13.27;;;11.90;94.30;;;;;;5073351;28;20456;-72
2021/05/27 03:46:06;;;;;;;15.87;13.77;;;12.00;94.20;;;;;;5073258;28;20457;-72
2021/05/27 03:48:33;;;;;;;14.47;12.97;;;12.00;94.20;;;;;;5074087;28;20480;-72
2021/05/27 03:50:59;;;;;;;15.90;14.27;;;12.00;94.60;;;;;;5077568;28;20429;-72
2021/05/27 03:53:25;;;;;;;15.50;13.80;;;12.00;94.00;;;;;;5077525;28;20471;-72
2021/05/27 03:55:52;;;;;;;19.40;11.97;;;12.10;93.90;;;;;;5077336;28;20466;-72
2021/05/27 04:01:03;;;;;;;17.30;15.10;;;12.00;93.90;;;;;;5077331;28;20773;-73
2021/05/27 04:07:04;;;;;;;16.17;14.03;;;12.00;93.90;;;;;;5077242;28;20444;-73
2021/05/27 04:09:00;;;;;;;14.73;11.50;;;11.90;93.40;;;;;;5076888;28;20486;-73
2021/05/27 04:11:27;;;;;;;17.00;12.83;;;12.00;93.40;;;;;;5077045;28;20448;-73
2021/05/27 04:13:53;;;;;;;16.83;11.63;;;12.00;93.00;;;;;;5077061;28;20409;-73
2021/05/27 04:16:20;;;;;;;14.77;11.80;;;11.90;92.90;;;;;;5076469;28;20529;-72
2021/05/27 04:18:46;;;;;;;15.50;12.10;;;11.90;92.90;;;;;;5076891;28;20494;-72
2021/05/27 04:21:12;;;;;;;13.83;10.97;;;11.90;92.90;;;;;;5076887;28;20447;-73
2021/05/27 04:23:39;;;;;;;16.43;11.20;;;11.90;93.10;;;;;;5076437;28;20854;-73
2021/05/27 04:26:07;;;;;;;10.87;9.53;;;12.00;93.20;;;;;;5076693;28;20500;-72
2021/05/27 04:28:36;;;;;;;14.20;11.10;;;12.10;93.20;;;;;;5076350;28;20476;-73
2021/05/27 04:31:10;;;;;;;13.00;11.70;;;12.10;93.10;;;;;;5076594;28;20449;-73
2021/05/27 04:33:37;;;;;;;12.97;11.40;;;12.20;93.30;;;;;;5076985;28;20561;-72
2021/05/27 04:36:05;;;;;;;13.80;12.50;;;12.20;93.50;;;;;;5076516;28;20993;-72
2021/05/27 04:38:31;;;;;;;15.37;12.33;;;12.20;93.60;;;;;;5076763;28;20444;-71
2021/05/27 04:40:57;;;;;;;12.93;11.60;;;12.20;93.90;;;;;;5077167;28;20874;-71
2021/05/27 04:43:24;;;;;;;19.20;12.90;;;12.20;94.10;;;;;;5077363;28;20803;-71
2021/05/27 04:45:51;;;;;;;24.20;15.00;;;12.20;94.20;;;;;;5076806;28;20605;-71
2021/05/27 04:48:17;;;;;;;13.23;11.93;;;12.20;94.20;;;;;;5076291;28;20468;-71
2021/05/27 04:50:45;;;;;;;14.60;12.57;;;12.20;94.30;;;;;;5076346;28;20450;-71
2021/05/27 04:53:12;;;;;;;20.77;13.17;;;12.20;94.50;;;;;;5076509;28;20449;-71
2021/05/27 04:55:38;;;;;;;14.63;13.10;;;12.10;94.60;;;;;;5076166;28;20473;-71
2021/05/27 04:58:05;;;;;;;15.07;13.23;;;12.20;94.80;;;;;;5076354;28;20447;-72
2021/05/27 05:00:32;;;;;;;16.40;12.50;;;12.20;94.70;;;;;;5075150;28;20817;-72
2021/05/27 05:03:00;;;;;;;16.43;13.57;;;12.20;94.70;;;;;;5076429;28;20456;-72
2021/05/27 05:05:28;;;;;;;13.43;12.07;;;12.10;94.70;;;;;;5076217;28;20483;-71
2021/05/27 05:07:55;;;;;;;20.23;14.00;;;12.20;94.90;;;;;;5076835;28;20476;-72
2021/05/27 05:10:23;;;;;;;18.43;13.57;;;12.20;94.90;;;;;;5076144;28;20502;-72
2021/05/27 05:12:50;;;;;;;16.73;12.83;;;12.20;94.90;;;;;;5075650;28;20935;-71
2021/05/27 05:15:18;;;;;;;16.20;13.23;;;12.20;94.80;;;;;;5075860;28;20444;-71
2021/05/27 05:17:48;;;;;;;19.13;13.60;;;12.30;94.90;;;;;;5075874;28;20426;-71
2021/05/27 05:20:15;;;;;;;18.43;13.17;;;12.30;95.10;;;;;;5076134;28;20476;-71
2021/05/27 05:22:41;;;;;;;15.00;13.03;;;12.30;95.00;;;;;;5075472;28;20425;-71
2021/05/27 05:25:08;;;;;;;15.77;12.47;;;12.30;94.70;;;;;;5075727;28;20433;-71
2021/05/27 05:27:35;;;;;;;17.00;15.20;;;12.40;94.80;;;;;;5075489;28;20557;-71
2021/05/27 05:30:01;;;;;;;18.48;15.80;;;12.40;94.80;;;;;;5075602;28;20438;-72
2021/05/27 05:32:27;;;;;;;21.00;15.00;;;12.40;94.80;;;;;;5075610;28;20202;-72
2021/05/27 05:34:54;;;;;;;16.97;13.97;;;12.50;95.10;;;;;;5076713;28;20436;-73
2021/05/27 05:37:21;;;;;;;21.63;16.90;;;12.60;95.00;;;;;;5077029;28;20457;-73
2021/05/27 05:39:48;;;;;;;20.87;18.60;;;12.50;94.50;;;;;;5076671;28;20498;-73
2021/05/27 05:42:14;;;;;;;19.07;17.17;;;12.50;94.50;;;;;;5076084;28;20456;-72
2021/05/27 05:44:40;;;;;;;20.60;17.83;;;12.50;94.60;;;;;;5076472;28;20453;-72
2021/05/27 05:47:06;;;;;;;20.60;15.67;;;12.50;94.40;;;;;;5075800;28;20836;-73
2021/05/27 05:49:33;;;;;;;17.10;13.27;;;12.50;94.40;;;;;;5075513;28;20448;-71
2021/05/27 05:51:59;;;;;;;19.60;14.60;;;12.30;94.40;;;;;;5075556;28;20460;-71
2021/05/27 05:54:26;;;;;;;17.90;14.40;;;12.20;94.80;;;;;;5075423;28;20978;-72
2021/05/27 05:56:52;;;;;;;20.70;13.90;;;12.10;95.30;;;;;;5075914;28;20471;-72
2021/05/27 05:59:18;;;;;;;22.83;14.00;;;12.10;95.40;;;;;;5076135;28;20452;-74
2021/05/27 06:01:45;;;;;;;23.00;15.40;;;12.00;95.10;;;;;;5077087;28;20445;-72
2021/05/27 06:04:11;;;;;;;20.67;14.60;;;12.00;95.30;;;;;;5076688;28;20830;-72
2021/05/27 06:06:37;;;;;;;23.77;14.40;;;12.00;95.40;;;;;;5075291;28;20472;-72
2021/05/27 06:09:04;;;;;;;23.40;14.13;;;12.00;95.10;;;;;;5075069;28;20476;-73
2021/05/27 06:11:31;;;;;;;24.70;15.30;;;11.80;95.50;;;;;;5075566;28;20441;-73
2021/05/27 06:13:57;;;;;;;24.13;14.13;;;11.70;95.40;;;;;;5075839;28;20433;-73
2021/05/27 06:16:23;;;;;;;25.80;15.10;;;11.70;95.70;;;;;;5075888;28;20534;-72
2021/05/27 06:18:50;;;;;;;23.70;13.97;;;11.80;95.90;;;;;;5075859;28;20803;-73
2021/05/27 06:21:16;;;;;;;22.97;12.80;;;11.80;95.80;;;;;;5074998;28;20845;-73
2021/05/27 06:23:42;;;;;;;19.83;12.70;;;11.80;95.50;;;;;;5075500;28;20516;-72
2021/05/27 06:26:10;;;;;;;22.93;13.30;;;11.90;95.60;;;;;;5074928;28;20500;-72
2021/05/27 06:28:37;;;;;;;21.37;13.20;;;11.80;95.20;;;;;;5074899;28;20480;-72
2021/05/27 06:31:04;;;;;;;18.73;12.50;;;11.90;95.40;;;;;;5075016;28;20449;-72
2021/05/27 06:33:30;;;;;;;23.57;12.60;;;11.90;95.40;;;;;;5074746;28;20444;-72
2021/05/27 06:35:56;;;;;;;17.97;11.60;;;12.00;95.30;;;;;;5074581;28;20472;-72
2021/05/27 06:38:22;;;;;;;19.73;11.90;;;11.90;95.40;;;;;;5074611;28;20428;-72
2021/05/27 06:40:49;;;;;;;16.87;11.43;;;11.90;95.40;;;;;;5074386;28;20445;-72
2021/05/27 06:43:15;;;;;;;18.80;11.93;;;11.90;95.30;;;;;;5074338;28;20482;-72
2021/05/27 06:45:42;;;;;;;20.00;11.27;;;11.90;95.30;;;;;;5074993;28;20496;-72
2021/05/27 06:48:08;;;;;;;22.57;11.07;;;11.90;95.00;;;;;;5074167;28;20473;-72
2021/05/27 06:50:35;;;;;;;16.50;11.93;;;11.90;95.10;;;;;;5074251;28;20448;-72
2021/05/27 06:53:04;;;;;;;15.90;10.87;;;11.90;95.10;;;;;;5074249;28;20440;-72
2021/05/27 06:55:30;;;;;;;21.23;10.20;;;12.00;95.00;;;;;;5073971;28;20433;-72
2021/05/27 06:57:56;;;;;;;17.67;8.83;;;12.00;94.90;;;;;;5073672;28;20943;-72
2021/05/27 07:00:24;;;;;;;16.90;10.00;;;12.10;94.70;;;;;;5073633;28;20448;-72
2021/05/27 07:02:51;;;;;;;18.60;11.23;;;12.10;94.50;;;;;;5074081;28;20487;-72
2021/05/27 07:05:18;;;;;;;22.47;10.67;;;12.20;95.00;;;;;;5073798;28;20882;-72
2021/05/27 07:07:44;;;;;;;16.80;11.80;;;12.30;94.90;;;;;;5073967;28;20480;-72
2021/05/27 07:10:13;;;;;;;20.17;9.93;;;12.40;94.50;;;;;;5074557;28;20467;-72
2021/05/27 07:12:39;;;;;;;23.33;12.03;;;12.60;94.40;;;;;;5074293;28;20506;-72
2021/05/27 07:15:07;;;;;;;17.30;11.20;;;12.60;94.10;;;;;;5074011;28;20482;-72
2021/05/27 07:17:33;;;;;;;19.03;12.20;;;12.50;93.50;;;;;;5073931;28;20460;-72
2021/05/27 07:20:00;;;;;;;22.33;12.20;;;12.40;93.90;;;;;;5074588;28;20440;-72
2021/05/27 07:22:26;;;;;;;16.27;11.23;;;12.50;93.70;;;;;;5073793;28;20437;-72
2021/05/27 07:24:52;;;;;;;16.87;11.60;;;12.40;93.60;;;;;;5073280;28;20421;-72
2021/05/27 07:27:19;;;;;;;18.43;11.27;;;12.30;94.00;;;;;;5073838;28;20488;-72
2021/05/27 07:29:47;;;;;;;21.20;11.97;;;12.30;94.20;;;;;;5073828;28;20456;-72
2021/05/27 07:32:14;;;;;;;14.17;10.87;;;12.40;93.90;;;;;;5073798;28;20475;-72
2021/05/27 07:34:40;;;;;;;19.47;9.20;;;12.40;93.60;;;;;;5073481;28;20449;-72
2021/05/27 07:37:07;;;;;;;14.10;8.03;;;12.40;93.20;;;;;;5073380;28;20477;-72
2021/05/27 07:39:33;;;;;;;13.63;7.50;;;12.40;93.40;;;;;;5073518;28;20463;-72
2021/05/27 07:42:01;;;;;;;10.30;7.00;;;12.40;93.40;;;;;;5073465;28;20478;-72
2021/05/27 07:44:27;;;;;;;15.20;8.20;;;12.30;92.90;;;;;;5073174;28;20916;-72
2021/05/27 07:46:53;;;;;;;15.07;6.40;;;12.40;93.20;;;;;;5073227;28;20466;-72
2021/05/27 07:49:20;;;;;;;10.93;6.83;;;12.50;93.60;;;;;;5073306;28;20484;-72
2021/05/27 07:51:47;;;;;;;13.70;6.33;;;12.50;93.00;;;;;;5073108;28;20990;-72
2021/05/27 07:54:14;;;;;;;7.70;6.07;;;12.60;93.20;;;;;;5073191;28;20935;-71
2021/05/27 07:56:40;;;;;;;11.93;6.53;;;12.60;92.90;;;;;;5073287;28;20464;-71
2021/05/27 07:59:06;;;;;;;10.93;6.23;;;12.60;93.10;;;;;;5073259;28;20445;-71
2021/05/27 08:01:32;;;;;;;12.50;5.20;;;12.70;92.90;;;;;;5072973;28;20448;-71
2021/05/27 08:03:59;;;;;;;13.33;7.90;;;12.60;92.70;;;;;;5073044;28;20433;-71
2021/05/27 08:06:25;;;;;;;9.53;5.80;;;12.60;92.80;;;;;;5073004;28;20473;-71
2021/05/27 08:08:51;;;;;;;10.40;6.20;;;12.50;93.00;;;;;;5073101;28;21074;-71
2021/05/27 08:11:18;;;;;;;10.33;6.93;;;12.50;93.10;;;;;;5073404;28;20455;-71
2021/05/27 08:13:46;;;;;;;10.13;6.30;;;12.60;93.00;;;;;;5073292;28;20455;-72
2021/05/27 08:16:12;;;;;;;9.47;5.67;;;12.60;92.70;;;;;;5073043;28;20476;-71
2021/05/27 08:18:39;;;;;;;14.13;6.90;;;12.60;92.80;;;;;;5073180;28;20812;-71
2021/05/27 08:21:05;;;;;;;11.30;6.10;;;12.60;92.50;;;;;;5072837;28;20425;-71
2021/05/27 08:23:33;;;;;;;11.90;6.30;;;12.60;92.90;;;;;;5073211;28;20452;-71
2021/05/27 08:25:59;;;;;;;13.47;7.63;;;12.60;92.80;;;;;;5073294;28;20469;-71
2021/05/27 08:28:26;;;;;;;10.87;7.23;;;12.60;92.90;;;;;;5073064;28;20481;-71
2021/05/27 08:30:53;;;;;;;17.73;6.60;;;12.70;93.30;;;;;;5073030;28;20429;-71
2021/05/27 08:33:19;;;;;;;9.40;6.40;;;12.80;93.50;;;;;;5072863;28;21029;-71
2021/05/27 08:35:46;;;;;;;13.07;6.90;;;12.80;93.20;;;;;;5076065;28;20471;-71
2021/05/27 08:38:12;;;;;;;11.87;6.77;;;12.90;93.30;;;;;;5076445;28;20448;-71
2021/05/27 08:40:38;;;;;;;10.00;6.90;;;13.00;93.50;;;;;;5076877;28;20455;-72
2021/05/27 08:43:05;;;;;;;10.20;6.73;;;13.10;93.00;;;;;;5076793;28;20431;-72
2021/05/27 08:45:36;;;;;;;10.07;6.17;;;13.10;92.70;;;;;;5076535;28;20443;-71
2021/05/27 08:48:03;;;;;;;11.43;7.40;;;13.00;93.10;;;;;;5076483;28;20468;-71
2021/05/27 08:50:32;;;;;;;9.03;7.93;;;13.10;93.40;;;;;;5076545;28;20447;-72
2021/05/27 08:52:58;;;;;;;7.73;6.07;;;13.10;92.30;;;;;;5076021;28;20439;-71
2021/05/27 08:55:24;;;;;;;12.37;7.10;;;13.20;92.60;;;;;;5076221;28;20502;-71
2021/05/27 08:57:51;;;;;;;10.00;7.23;;;13.20;92.30;;;;;;5076591;28;20425;-72
2021/05/27 09:00:19;;;;;;;8.60;7.57;;;13.20;92.40;;;;;;5075947;28;20962;-72
2021/05/27 09:02:56;;;;;;;15.03;8.20;;;13.20;92.30;;;;;;5076224;28;20444;-72
2021/05/27 09:05:24;;;;;;;17.60;8.20;;;13.00;92.10;;;;;;5076064;28;20474;-71
2021/05/27 09:07:50;;;;;;;16.77;8.60;;;13.00;92.70;;;;;;5076102;28;20480;-72
2021/05/27 09:10:17;;;;;;;9.50;7.60;;;13.00;93.10;;;;;;5076223;28;20490;-72
2021/05/27 09:12:43;;;;;;;12.53;7.90;;;13.10;93.00;;;;;;5075951;28;20805;-72
2021/05/27 09:15:21;;;;;;;18.00;8.90;;;13.00;92.80;;;;;;5076140;28;20448;-72
2021/05/27 09:17:50;;;;;;;15.10;8.43;;;13.00;92.20;;;;;;5075802;28;20952;-72
2021/05/27 09:20:20;;;;;;;11.50;7.70;;;12.90;92.30;;;;;;5075617;28;20844;-72
2021/05/27 09:22:47;;;;;;;11.33;7.70;;;12.80;93.00;;;;;;5075945;28;20444;-72
2021/05/27 09:25:28;;;;;;;8.00;7.30;;;12.70;92.70;;;;;;5076170;28;20441;-72
2021/05/27 09:27:55;;;;;;;13.67;7.60;;;12.60;93.20;;;;;;5075621;28;20486;-72
2021/05/27 09:30:23;;;;;;;13.93;8.70;;;12.60;93.70;;;;;;5075961;28;20475;-72
2021/05/27 09:32:51;;;;;;;7.93;7.10;;;12.60;93.60;;;;;;5075916;28;20452;-72
2021/05/27 09:35:19;;;;;;;11.00;8.10;;;12.60;93.80;;;;;;5076032;28;20449;-72
2021/05/27 09:37:50;;;;;;;13.87;8.10;;;12.60;93.70;;;;;;5075886;28;20441;-72
2021/05/27 09:40:31;;;;;;;11.13;8.10;;;12.70;93.70;;;;;;5075755;28;20832;-72
2021/05/27 09:42:59;;;;;;;12.27;7.27;;;12.70;93.60;;;;;;5075498;28;20459;-72
2021/05/27 09:45:27;;;;;;;12.43;7.97;;;12.70;93.20;;;;;;5075358;28;20448;-71
2021/05/27 09:47:54;;;;;;;11.43;8.70;;;12.60;93.60;;;;;;5074742;28;20487;-71
2021/05/27 09:50:31;;;;;;;11.57;8.40;;;12.50;93.70;;;;;;5075211;28;20440;-71
2021/05/27 09:53:11;;;;;;;16.57;8.70;;;12.50;94.00;;;;;;5075244;28;20436;-71
2021/05/27 09:55:38;;;;;;;14.70;9.53;;;12.50;94.20;;;;;;5075169;28;20782;-71
2021/05/27 09:58:08;;;;;;;11.47;9.97;;;12.40;94.30;;;;;;5075057;28;20447;-71
2021/05/27 10:00:34;;;;;;;11.90;8.50;;;12.50;94.50;;;;;;5074829;28;20930;-71
2021/05/27 10:03:31;;;;;;;12.30;9.67;;;12.50;94.80;;;;;;5075287;28;20429;-71
2021/05/27 10:06:01;;;;;;;17.97;10.30;;;12.50;95.10;;;;;;5074838;28;20469;-71
2021/05/27 10:08:29;;;;;;;15.77;9.47;;;12.60;95.00;;;;;;5074724;28;20481;-71
2021/05/27 10:10:56;;;;;;;12.97;8.43;;;12.70;94.90;;;;;;5074812;28;20497;-71
2021/05/27 10:13:26;;;;;;;13.80;9.77;;;12.80;94.90;;;;;;5074781;28;20436;-71
2021/05/27 10:15:53;;;;;;;11.60;8.87;;;12.80;94.60;;;;;;5074752;28;20563;-71
2021/05/27 10:18:20;;;;;;;13.70;9.70;;;12.80;94.70;;;;;;5074691;28;20489;-71
2021/05/27 10:20:48;;;;;;;11.67;9.17;;;12.90;94.80;;;;;;5074706;28;20849;-72
2021/05/27 10:23:16;;;;;;;11.47;9.10;;;13.00;94.90;;;;;;5074617;28;20436;-71
2021/05/27 10:25:45;;;;;;;14.37;9.40;;;13.10;94.50;;;;;;5074477;28;20469;-71
2021/05/27 10:28:13;;;;;;;10.13;9.13;;;13.20;94.40;;;;;;5074345;28;20468;-72
2021/05/27 10:30:41;;;;;;;15.40;8.83;;;13.20;94.30;;;;;;5074404;28;20425;-71
2021/05/27 10:33:16;;;;;;;14.83;8.10;;;13.40;94.30;;;;;;5074283;28;20449;-72
2021/05/27 10:35:48;;;;;;;13.27;8.40;;;13.60;93.40;;;;;;5074264;28;20526;-71
2021/05/27 10:38:15;;;;;;;9.57;7.57;;;13.70;93.00;;;;;;5074246;28;20430;-72
2021/05/27 10:40:43;;;;;;;9.10;6.80;;;13.80;92.60;;;;;;5074168;28;20441;-72
2021/05/27 10:43:14;;;;;;;8.87;6.80;;;13.80;92.30;;;;;;5073952;28;20938;-72
2021/05/27 10:46:07;;;;;;;12.43;6.33;;;13.80;91.80;;;;;;5074153;28;20567;-72
2021/05/27 10:48:44;;;;;;;11.70;6.53;;;13.70;91.90;;;;;;5073778;28;20465;-72
2021/05/27 10:51:18;;;;;;;14.77;6.30;;;13.70;92.60;;;;;;5074086;28;20428;-72
2021/05/27 10:54:03;;;;;;;8.67;5.57;;;13.80;92.10;;;;;;5074041;28;20536;-73
2021/05/27 10:56:43;;;;;;;11.80;7.30;;;14.00;92.60;;;;;;5073936;28;20822;-72
2021/05/27 10:59:10;;;;;;;9.77;6.63;;;14.20;92.60;;;;;;5072962;28;20460;-72
2021/05/27 11:02:22;;;;;;;7.93;6.00;;;14.30;91.90;;;;;;5073550;28;20957;-72
2021/05/27 11:04:48;;;;;;;8.83;6.73;;;14.30;90.70;;;;;;5073771;28;20447;-73
2021/05/27 11:07:25;;;;;;;10.63;6.40;;;14.40;91.10;;;;;;5073806;28;20468;-72
2021/05/27 11:09:57;;;;;;;11.43;7.70;;;14.20;90.20;;;;;;5073837;28;20424;-73
2021/05/27 11:12:32;;;;;;;11.40;7.03;;;14.30;90.70;;;;;;5074055;28;20435;-73
2021/05/27 11:15:16;;;;;;;12.03;7.63;;;14.20;90.80;;;;;;5073822;28;20421;-72
2021/05/27 11:17:59;;;;;;;12.47;7.87;;;14.20;90.50;;;;;;5073670;28;20460;-73
2021/05/27 11:20:29;;;;;;;9.50;7.60;;;14.10;91.30;;;;;;5073373;28;20923;-73
2021/05/27 11:22:58;;;;;;;8.73;6.97;;;14.00;90.80;;;;;;5073606;28;20467;-73
2021/05/27 11:25:36;;;;;;;12.47;6.80;;;14.00;90.80;;;;;;5073524;28;20436;-72
2021/05/27 11:28:38;;;;;;;11.03;7.10;;;14.10;90.60;;;;;;5073148;28;20468;-72
2021/05/27 11:31:06;;;;;;;12.37;7.10;;;14.30;91.40;;;;;;5073583;28;20435;-72
2021/05/27 11:33:39;;;;;;;11.47;7.40;;;14.40;91.00;;;;;;5073560;28;20432;-72
2021/05/27 11:36:09;;;;;;;8.30;5.97;;;14.60;90.30;;;;;;5073118;28;20456;-73
2021/05/27 11:38:37;;;;;;;10.07;6.60;;;14.70;89.60;;;;;;5073441;28;20520;-72
2021/05/27 11:41:06;;;;;;;12.60;6.37;;;14.90;90.50;;;;;;5073179;28;20910;-72
2021/05/27 11:43:38;;;;;;;6.57;5.70;;;15.10;89.40;;;;;;5073480;28;20457;-72
2021/05/27 11:46:06;;;;;;;13.90;7.57;;;15.10;87.40;;;;;;5073404;28;20468;-72
2021/05/27 11:48:38;;;;;;;8.33;5.70;;;15.10;86.70;;;;;;5073386;28;20876;-72
2021/05/27 11:51:10;;;;;;;8.17;5.93;;;15.00;86.80;;;;;;5073409;28;20432;-73
2021/05/27 11:53:46;;;;;;;8.60;6.23;;;15.00;88.20;;;;;;5073344;28;20441;-72
2021/05/27 11:56:26;;;;;;;16.20;7.77;;;15.20;88.20;;;;;;5073457;28;20471;-72
2021/05/27 11:58:52;;;;;;;7.33;5.77;;;15.20;86.90;;;;;;5073305;28;20792;-72
2021/05/27 12:01:21;;;;;;;11.53;5.80;;;15.20;87.20;;;;;;5073289;28;20420;-73
2021/05/27 12:04:07;;;;;;;8.80;5.73;;;15.10;85.00;;;;;;5072882;28;20784;-72
2021/05/27 12:06:55;;;;;;;9.33;5.50;;;15.20;87.30;;;;;;5073347;28;20468;-72
2021/05/27 12:09:45;;;;;;;11.20;5.60;;;15.20;86.10;;;;;;5073773;28;20536;-72
2021/05/27 12:12:23;;;;;;;6.60;4.97;;;15.60;88.10;;;;;;5077184;28;20436;-72
2021/05/27 12:14:53;;;;;;;5.50;4.70;;;15.60;80.80;;;;;;5077109;28;20433;-72
2021/05/27 12:17:25;;;;;;;7.00;5.20;;;15.70;81.50;;;;;;5076596;28;20483;-72
2021/05/27 12:19:53;;;;;;;9.30;5.00;;;15.90;83.60;;;;;;5077010;28;20433;-73
2021/05/27 12:22:20;;;;;;;8.23;4.93;;;15.90;81.60;;;;;;5077046;28;20429;-72
2021/05/27 12:24:47;;;;;;;7.60;5.20;;;15.70;80.40;;;;;;5076868;28;20456;-73
2021/05/27 12:27:14;;;;;;;8.77;5.13;;;15.40;83.20;;;;;;5076814;28;20978;-72
2021/05/27 12:29:41;;;;;;;9.73;5.27;;;15.20;81.80;;;;;;5076412;28;20966;-72
2021/05/27 12:32:08;;;;;;;8.20;4.97;;;15.10;82.50;;;;;;5077301;28;20432;-72
2021/05/27 12:34:40;;;;;;;8.00;5.00;;;14.90;82.70;;;;;;5076649;28;20449;-72
2021/05/27 12:37:07;;;;;;;7.30;5.43;;;14.90;83.70;;;;;;5077090;28;20475;-72
2021/05/27 12:39:40;;;;;;;8.03;4.80;;;14.90;84.80;;;;;;5076246;28;20959;-73
2021/05/27 12:42:08;;;;;;;7.73;5.03;;;15.00;84.90;;;;;;5076237;28;20424;-72
2021/05/27 12:44:41;;;;;;;8.30;5.00;;;15.00;83.70;;;;;;5076499;28;20436;-73
2021/05/27 12:47:19;;;;;;;9.70;4.73;;;14.90;84.40;;;;;;5076297;28;20483;-72
2021/05/27 12:49:47;;;;;;;5.90;5.00;;;14.90;85.50;;;;;;5076629;28;20468;-73